Pagrindinis puslapis
METAR-TAF:

METAR-TAF

Oro uostai :

Honkongo tarptautinis oro uostas

Honkongas, Kinija

platuma: 22-19N, ilguma: 113-55E, Aukštis: 9 m

Dabartinis oras

Ataskaita buvo paskelbta 39 minutes, ne 22:00 UTC
Vėjas 9 kt iš Šiaurės/Šiaurės Rytų
Temperatūra 16°C
Drėgmė 59%
Slėgis 1023 hPa
Matomumas 10 km arba daugiau
Mažai debesys ne aukštis 3500 ft

METAR: VHHH 292200Z 03009KT 9999 FEW035 16/08 Q1023 NOSIG

Laikas: 06:39 (22:39 UTC)

Prognozė

Ataskaita buvo paskelbta 5 valandos ir 39 minutes, ne 17:00 UTC
Prognozė galioja nuo 29 metu 18 UTC su 30 metu 24 UTC
Vėjas 10 kt iš Šiaurės/Šiaurės Rytų
Matomumas 10 km arba daugiau
Mažai debesys ne aukštis 4000 ft
Laikinai
nuo 30 metu 04 UTC su 30 metu 09 UTC
Vėjas 10 kt iš Vakarų/Šiaurės Vakarų

TAF: VHHH 291700Z 2918/3024 03010KT 9999 FEW040 TX23/3006Z TN17/2922Z TN17/3022Z TEMPO 3004/3009 30010KT

Orai ataskaitas ir orų prognozės (METAR, TAF).

turimą stotys yra geltonos ir raudonos taškus žemėlapyje.

Perkelti pele per norėdami pamatyti stoties vardą.

Tada spustelėkite, norėdami matyti oro stebėjimo ir prognozės.

Norėdami pakeisti žemėlapį: spustelėkite ant žalios mygtukų su juodo kryžiaus žemyn,; žalią mygtuką su brūkšneliu, jei norite nutolinti; arba žalių rodyklių gretimoms žemėlapius.


METAR-TAF: